Skip Navigation Links
NOAA logo - Click to go to the NOAA homepage
NOAA's National Weather Service
Alaska Aviation Weather Unit
  NWS logo - Click to go to the NWS homepage
Left Navbar Graphic     21 AKDT = 05 GMT

   
NOAA is celebrating 200 years of science, service, and stewardship. Visit the NOAA 200th celebration Web site to learn more.
USA.gov is the U.S. Government's official Web portal to all Federal, state and local government Web resources and services.
Facebook
NWS on Facebook

AAWU Home :: Display TAF Add Bookmark
METAR PAHC 262356Z AUTO 00000KT 10SM SCT080 11/M02 A2952 RMK AO2 SLP002
     6//// T01111017 10117 20050 58007 PNO $=

METAR PAHC 270056Z AUTO 00000KT 10SM BKN055 12/M01 A2952 RMK AO2 SLP001
     T01171011 PNO $=

METAR PAHC 270156Z AUTO VRB04KT 10SM BKN110 12/M01 A2952 RMK AO2
 SLP000 T01171011 PNO $=

METAR PAHC 270256Z AUTO 00000KT 10SM OVC075 11/M01 A2952 RMK AO2 SLP002
     6//// T01061011 55000 PNO $=

METAR PAHC 270356Z AUTO 22010KT 10SM SCT055 BKN100 11/01 A2953 RMK AO2
     SLP004 T01110011 PNO $=

METAR PAHC 270456Z AUTO VRB03KT 10SM SCT048 BKN055 OVC070 11/01 A2955
     RMK AO2 SLP011 T01110006 PNO $=


NOAA's National Weather Service
Alaska Aviation Weather Unit
6930 Sand Lake Road
Anchorage, AK 99502-1845
Disclaimer
Credits
Glossary
Privacy Policy
About Us
Career Opportunities
Contact AAWU Internet Services Site last modified: April, 17th 2012